Time;durP1;ratioP1;P1;durP2;ratioP2;P2;SDS_P1;SDS_P2;PMS_P1;PMS_P2;Temp;Humidity;BMP_temperature;BMP_pressure;BME280_temperature;BME280_humidity;BME280_pressure;Samples;Min_cycle;Max_cycle;Signal;HPM_P1;HPM_P2
2023/06/16 00:01:41;;;;;;;10.10;6.88;;;15.10;99.90;;;;;;5076582;28;20056;-44
2023/06/16 00:04:08;;;;;;;11.70;6.90;;;15.10;99.90;;;;;;5086451;28;20016;-43
2023/06/16 00:06:33;;;;;;;9.43;7.10;;;15.10;99.90;;;;;;5085168;28;20478;-46
2023/06/16 00:09:00;;;;;;;9.32;7.10;;;15.10;99.90;;;;;;5069222;28;20016;-44
2023/06/16 00:11:29;;;;;;;12.05;7.35;;;15.10;99.90;;;;;;5088726;28;20020;-43
2023/06/16 00:13:56;;;;;;;12.07;7.40;;;15.00;99.90;;;;;;5082605;28;20503;-42
2023/06/16 00:16:23;;;;;;;9.55;7.20;;;15.00;99.90;;;;;;5068815;28;20421;-46
2023/06/16 00:18:51;;;;;;;10.68;7.10;;;15.00;99.90;;;;;;5069222;28;20028;-43
2023/06/16 00:21:45;;;;;;;11.35;7.95;;;15.00;99.90;;;;;;5068964;28;20052;-43
2023/06/16 00:24:11;;;;;;;10.52;6.80;;;14.90;99.90;;;;;;5067556;28;20068;-43
2023/06/16 00:26:37;;;;;;;8.43;6.53;;;14.90;99.90;;;;;;5079847;28;20066;-42
2023/06/16 00:29:04;;;;;;;11.93;7.65;;;14.80;99.90;;;;;;5089363;28;20024;-42
2023/06/16 00:31:31;;;;;;;13.90;6.97;;;14.80;99.90;;;;;;5085999;28;20354;-44
2023/06/16 00:33:57;;;;;;;10.27;7.00;;;14.80;99.90;;;;;;5077746;28;20551;-42
2023/06/16 00:36:23;;;;;;;9.77;6.97;;;14.80;99.90;;;;;;5085262;28;20032;-43
2023/06/16 00:38:48;;;;;;;12.85;7.43;;;14.70;99.90;;;;;;5068022;28;20581;-46
2023/06/16 00:41:14;;;;;;;9.23;7.18;;;14.80;99.90;;;;;;5085526;28;20024;-45
2023/06/16 00:43:39;;;;;;;9.25;7.25;;;14.80;99.90;;;;;;5077300;28;20020;-46
2023/06/16 00:46:08;;;;;;;11.27;7.82;;;14.80;99.90;;;;;;5068641;28;20024;-43
2023/06/16 00:48:34;;;;;;;9.75;7.03;;;14.80;99.90;;;;;;5065546;28;20016;-46
2023/06/16 00:50:59;;;;;;;10.30;8.00;;;14.80;99.90;;;;;;5081779;28;20020;-43
2023/06/16 00:53:25;;;;;;;7.97;7.15;;;14.80;99.90;;;;;;5068580;28;20024;-43
2023/06/16 00:55:51;;;;;;;9.00;7.10;;;14.80;99.90;;;;;;5074783;28;20024;-43
2023/06/16 00:58:18;;;;;;;12.75;7.65;;;14.80;99.90;;;;;;5088264;28;20077;-45
2023/06/16 01:00:46;;;;;;;11.50;7.53;;;14.80;99.90;;;;;;5075390;28;20521;-45
2023/06/16 01:03:13;;;;;;;13.75;7.28;;;14.80;99.90;;;;;;5068320;28;20021;-45
2023/06/16 01:05:39;;;;;;;15.10;8.23;;;14.80;99.90;;;;;;5068163;28;20466;-43
2023/06/16 01:08:20;;;;;;;9.80;7.20;;;14.90;99.90;;;;;;5076393;28;20023;-43
2023/06/16 01:11:08;;;;;;;8.75;7.18;;;14.90;99.90;;;;;;5067767;28;20105;-42
2023/06/16 01:13:53;;;;;;;9.52;6.88;;;14.90;99.90;;;;;;5080575;28;20016;-42
2023/06/16 01:16:22;;;;;;;8.70;6.22;;;14.90;99.90;;;;;;5076655;28;20051;-41
2023/06/16 01:18:51;;;;;;;9.68;6.40;;;14.90;99.90;;;;;;5068458;28;20021;-46
2023/06/16 01:21:31;;;;;;;9.68;7.10;;;15.00;99.90;;;;;;5085901;28;20157;-43
2023/06/16 01:24:08;;;;;;;9.30;7.80;;;15.00;99.90;;;;;;5074778;28;20054;-42
2023/06/16 01:26:37;;;;;;;10.48;7.18;;;14.90;99.90;;;;;;5070731;28;20454;-43
2023/06/16 01:29:06;;;;;;;9.40;7.25;;;14.90;99.90;;;;;;5076928;28;20381;-43
2023/06/16 01:31:33;;;;;;;12.45;8.27;;;14.90;99.90;;;;;;5067835;28;20568;-46
2023/06/16 01:34:02;;;;;;;10.68;7.15;;;14.90;99.90;;;;;;5067587;28;20495;-43
2023/06/16 01:36:31;;;;;;;10.27;7.75;;;14.90;99.90;;;;;;5069106;28;21019;-43
2023/06/16 01:39:00;;;;;;;11.68;7.30;;;14.90;99.90;;;;;;5068214;28;20025;-44
2023/06/16 01:41:26;;;;;;;10.05;6.65;;;14.80;99.90;;;;;;5067555;28;20013;-43
2023/06/16 01:43:53;;;;;;;8.95;7.30;;;14.80;99.90;;;;;;5073968;28;20052;-43
2023/06/16 01:46:19;;;;;;;11.80;7.68;;;14.80;99.90;;;;;;5067429;28;20107;-43
2023/06/16 01:48:46;;;;;;;11.10;7.55;;;14.80;99.90;;;;;;5067779;28;20059;-44
2023/06/16 01:51:12;;;;;;;9.40;7.03;;;14.80;99.90;;;;;;5072287;28;20381;-44
2023/06/16 01:53:37;;;;;;;9.77;6.82;;;14.80;99.90;;;;;;5074427;28;20033;-44
2023/06/16 01:56:03;;;;;;;10.65;6.20;;;14.80;99.90;;;;;;5071617;28;20031;-46
2023/06/16 01:58:29;;;;;;;10.18;7.15;;;14.80;99.90;;;;;;5071815;28;20548;-45
2023/06/16 02:00:57;;;;;;;9.10;7.35;;;14.80;99.90;;;;;;5071699;28;20031;-46
2023/06/16 02:03:36;;;;;;;17.13;7.10;;;14.80;99.90;;;;;;5071691;28;20013;-45
2023/06/16 02:06:08;;;;;;;10.88;6.72;;;14.80;99.90;;;;;;5078654;28;20027;-44
2023/06/16 02:08:35;;;;;;;10.65;7.15;;;14.80;99.90;;;;;;5071640;28;20478;-45
2023/06/16 02:11:01;;;;;;;10.15;7.05;;;14.80;99.90;;;;;;5070666;28;20462;-43
2023/06/16 02:13:27;;;;;;;9.75;6.47;;;14.80;99.90;;;;;;5077485;28;20043;-43
2023/06/16 02:15:54;;;;;;;10.10;6.93;;;14.90;99.90;;;;;;5087630;28;20388;-43
2023/06/16 02:18:24;;;;;;;9.50;6.13;;;14.90;99.90;;;;;;5082015;28;20116;-42
2023/06/16 02:20:50;;;;;;;7.07;5.75;;;15.00;99.90;;;;;;5086130;28;20020;-42
2023/06/16 02:23:16;;;;;;;10.70;6.75;;;15.00;99.90;;;;;;5089193;28;20028;-42
2023/06/16 02:25:42;;;;;;;9.45;6.00;;;15.00;99.90;;;;;;5070989;28;20027;-42
2023/06/16 02:28:08;;;;;;;13.00;6.53;;;15.00;99.90;;;;;;5071438;28;20025;-42
2023/06/16 02:30:33;;;;;;;9.63;6.32;;;15.00;99.90;;;;;;5071376;28;20628;-42
2023/06/16 02:32:59;;;;;;;7.90;6.18;;;15.00;99.90;;;;;;5069169;28;20119;-43
2023/06/16 02:35:24;;;;;;;10.90;7.22;;;15.10;99.90;;;;;;5081005;28;20046;-41
2023/06/16 02:37:53;;;;;;;9.68;6.25;;;15.10;99.90;;;;;;5077531;28;20036;-43
2023/06/16 02:40:19;;;;;;;13.82;6.88;;;15.00;99.90;;;;;;5080710;28;20028;-42
2023/06/16 02:42:46;;;;;;;9.80;6.18;;;15.00;99.90;;;;;;5090063;28;20020;-42
2023/06/16 02:45:12;;;;;;;10.73;6.90;;;15.00;99.90;;;;;;5082447;28;20127;-42
2023/06/16 02:47:37;;;;;;;7.43;6.35;;;15.00;99.90;;;;;;5078949;28;20111;-42
2023/06/16 02:50:03;;;;;;;7.75;5.80;;;15.00;99.90;;;;;;5079212;28;20490;-42
2023/06/16 02:52:29;;;;;;;8.18;6.80;;;15.00;99.90;;;;;;5080337;28;20612;-43
2023/06/16 02:54:55;;;;;;;9.38;6.20;;;15.00;99.90;;;;;;5090111;28;20020;-44
2023/06/16 02:57:21;;;;;;;10.07;6.40;;;15.00;99.90;;;;;;5069997;28;20036;-42
2023/06/16 02:59:47;;;;;;;8.73;6.50;;;15.10;99.90;;;;;;5070890;28;20490;-42
2023/06/16 03:02:13;;;;;;;10.02;6.65;;;15.10;99.90;;;;;;5079073;28;20035;-42
2023/06/16 03:04:40;;;;;;;8.15;6.65;;;15.10;99.90;;;;;;5071372;28;20020;-43
2023/06/16 03:07:06;;;;;;;8.50;5.88;;;15.10;99.90;;;;;;5070596;28;20082;-43
2023/06/16 03:09:32;;;;;;;9.65;6.43;;;15.10;99.90;;;;;;5078954;28;20481;-42
2023/06/16 03:11:58;;;;;;;7.30;5.80;;;15.10;99.90;;;;;;5085353;28;20110;-44
2023/06/16 03:14:25;;;;;;;8.40;6.57;;;15.20;99.90;;;;;;5073796;28;20398;-42
2023/06/16 03:16:50;;;;;;;8.35;6.22;;;15.20;99.90;;;;;;5076184;28;20028;-43
2023/06/16 03:19:18;;;;;;;10.88;6.00;;;15.20;99.90;;;;;;5079360;28;20024;-43
2023/06/16 03:21:44;;;;;;;9.40;5.75;;;15.10;99.90;;;;;;5082824;28;20119;-42
2023/06/16 03:24:13;;;;;;;8.20;6.05;;;15.10;99.90;;;;;;5082235;28;20012;-43
2023/06/16 03:26:39;;;;;;;8.07;5.80;;;15.10;99.90;;;;;;5085485;28;20119;-44
2023/06/16 03:29:05;;;;;;;8.13;6.68;;;15.10;99.90;;;;;;5070475;28;20032;-46
2023/06/16 03:31:31;;;;;;;10.57;6.65;;;15.10;99.90;;;;;;5070042;28;20024;-43
2023/06/16 03:33:57;;;;;;;10.00;6.03;;;15.10;99.90;;;;;;5070213;28;20091;-44
2023/06/16 03:36:22;;;;;;;9.57;7.05;;;15.10;99.90;;;;;;5086304;28;20024;-42
2023/06/16 03:38:48;;;;;;;9.10;6.72;;;15.10;99.90;;;;;;5070154;28;20024;-42
2023/06/16 03:41:14;;;;;;;6.55;5.53;;;15.10;99.90;;;;;;5086319;28;20389;-42
2023/06/16 03:43:40;;;;;;;8.98;5.82;;;15.10;99.90;;;;;;5086854;28;20434;-45
2023/06/16 03:46:07;;;;;;;9.20;6.90;;;15.00;99.90;;;;;;5075479;28;20385;-43
2023/06/16 03:48:33;;;;;;;7.75;6.18;;;15.00;99.90;;;;;;5077783;28;20017;-43
2023/06/16 03:50:58;;;;;;;8.82;6.18;;;15.00;99.90;;;;;;5084350;28;20080;-44
2023/06/16 03:53:24;;;;;;;9.43;7.00;;;15.00;99.90;;;;;;5072510;28;20021;-42
2023/06/16 03:55:49;;;;;;;8.15;7.00;;;15.00;99.90;;;;;;5088094;28;20031;-43
2023/06/16 03:58:15;;;;;;;8.45;6.70;;;14.90;99.90;;;;;;5080344;28;20021;-45
2023/06/16 04:00:44;;;;;;;12.88;7.70;;;15.00;99.90;;;;;;5088771;28;20023;-43
2023/06/16 04:03:11;;;;;;;12.75;7.13;;;14.90;99.90;;;;;;5072648;28;20052;-42
2023/06/16 04:05:38;;;;;;;9.30;7.22;;;14.90;99.90;;;;;;5068797;28;20115;-44
2023/06/16 04:08:04;;;;;;;9.70;7.70;;;14.90;99.90;;;;;;5069454;28;20035;-43
2023/06/16 04:10:29;;;;;;;9.93;7.78;;;14.90;99.90;;;;;;5069549;28;20020;-45
2023/06/16 04:12:55;;;;;;;10.77;7.82;;;14.90;99.90;;;;;;5074185;28;20016;-45
2023/06/16 04:15:20;;;;;;;16.50;8.52;;;14.90;99.90;;;;;;5071460;28;20027;-43
2023/06/16 04:17:46;;;;;;;9.27;7.65;;;14.90;99.90;;;;;;5068800;28;20025;-46
2023/06/16 04:20:13;;;;;;;12.57;8.25;;;14.90;99.90;;;;;;5069285;28;20029;-42
2023/06/16 04:22:39;;;;;;;8.45;7.00;;;14.80;99.90;;;;;;5068779;28;20024;-42
2023/06/16 04:25:07;;;;;;;10.60;7.63;;;14.80;99.90;;;;;;5068782;28;20249;-43
2023/06/16 04:27:33;;;;;;;10.95;7.43;;;14.80;99.90;;;;;;5071334;28;20013;-43
2023/06/16 04:30:03;;;;;;;9.75;7.68;;;14.80;99.90;;;;;;5087482;28;20028;-43
2023/06/16 04:32:35;;;;;;;12.15;7.97;;;14.80;99.90;;;;;;5089068;28;20063;-42
2023/06/16 04:35:03;;;;;;;11.90;8.18;;;14.80;99.90;;;;;;5080712;28;20033;-46
2023/06/16 04:37:29;;;;;;;16.58;9.32;;;14.70;99.90;;;;;;5087231;28;20092;-44
2023/06/16 04:39:55;;;;;;;11.55;8.05;;;14.60;99.90;;;;;;5083924;28;20012;-42
2023/06/16 04:42:20;;;;;;;10.32;7.47;;;14.60;99.90;;;;;;5069151;28;20032;-44
2023/06/16 04:44:46;;;;;;;13.63;8.73;;;14.50;99.90;;;;;;5076548;28;20146;-43
2023/06/16 04:47:12;;;;;;;12.00;8.63;;;14.50;99.90;;;;;;5066829;28;20406;-43
2023/06/16 04:49:39;;;;;;;12.48;8.52;;;14.50;99.90;;;;;;5068593;28;20029;-43
2023/06/16 04:52:08;;;;;;;9.32;7.55;;;14.40;99.90;;;;;;5077129;28;20035;-42
2023/06/16 04:54:35;;;;;;;16.30;8.80;;;14.40;99.90;;;;;;5068859;28;20019;-44
2023/06/16 04:57:01;;;;;;;13.23;9.30;;;14.40;99.90;;;;;;5080144;28;20028;-42
2023/06/16 04:59:26;;;;;;;12.88;8.98;;;14.40;99.90;;;;;;5087196;28;20104;-43
2023/06/16 05:01:52;;;;;;;13.00;8.90;;;14.50;99.90;;;;;;5073393;28;20647;-43
2023/06/16 05:04:18;;;;;;;15.80;9.82;;;14.50;99.90;;;;;;5070691;28;20017;-42
2023/06/16 05:06:43;;;;;;;10.18;8.27;;;14.50;99.90;;;;;;5076465;28;20103;-44
2023/06/16 05:09:09;;;;;;;10.55;7.65;;;14.50;99.90;;;;;;5068767;28;20500;-42
2023/06/16 05:11:36;;;;;;;10.82;8.30;;;14.50;99.90;;;;;;5077052;28;20019;-43
2023/06/16 05:14:01;;;;;;;10.40;8.30;;;14.50;99.90;;;;;;5076434;28;20023;-43
2023/06/16 05:16:27;;;;;;;12.65;8.27;;;14.60;99.90;;;;;;5068204;28;20016;-44
2023/06/16 05:18:53;;;;;;;9.02;7.60;;;14.60;99.90;;;;;;5080303;28;20039;-45
2023/06/16 05:21:25;;;;;;;10.50;7.45;;;14.60;99.90;;;;;;5071685;28;20099;-43
2023/06/16 05:23:53;;;;;;;10.65;7.28;;;14.60;99.90;;;;;;5081439;28;20228;-43
2023/06/16 05:26:20;;;;;;;10.48;7.72;;;14.70;99.90;;;;;;5084929;28;20024;-44
2023/06/16 05:28:46;;;;;;;11.60;8.57;;;14.70;99.90;;;;;;5072042;28;20496;-43
2023/06/16 05:31:13;;;;;;;8.20;6.97;;;14.60;99.90;;;;;;5081299;28;20036;-43
2023/06/16 05:33:38;;;;;;;11.25;8.35;;;14.70;99.90;;;;;;5070807;28;20103;-44
2023/06/16 05:36:04;;;;;;;11.82;7.93;;;14.60;99.90;;;;;;5072799;28;20289;-42
2023/06/16 05:38:30;;;;;;;11.75;7.90;;;14.70;99.90;;;;;;5067517;28;20027;-44
2023/06/16 05:40:56;;;;;;;9.98;7.50;;;14.70;99.90;;;;;;5067065;28;20021;-44
2023/06/16 05:43:22;;;;;;;10.80;7.35;;;14.70;99.90;;;;;;5068230;28;20012;-42
2023/06/16 05:45:47;;;;;;;14.07;7.72;;;14.80;99.90;;;;;;5074593;28;20038;-43
2023/06/16 05:48:13;;;;;;;10.85;8.35;;;14.80;99.90;;;;;;5068003;28;20071;-42
2023/06/16 05:50:40;;;;;;;13.43;8.27;;;14.80;99.90;;;;;;5085758;28;20028;-42
2023/06/16 05:53:05;;;;;;;8.75;7.03;;;14.80;99.90;;;;;;5079875;28;20020;-43
2023/06/16 05:55:31;;;;;;;9.40;6.97;;;14.80;99.90;;;;;;5069341;28;20028;-43
2023/06/16 05:57:57;;;;;;;10.45;7.90;;;15.00;99.90;;;;;;5081090;28;20040;-44
2023/06/16 06:00:23;;;;;;;9.35;7.25;;;15.10;99.90;;;;;;5079068;28;20142;-42
2023/06/16 06:02:48;;;;;;;12.88;7.40;;;15.20;99.90;;;;;;5079775;28;20381;-43
2023/06/16 06:05:15;;;;;;;9.80;7.38;;;15.20;99.90;;;;;;5072250;28;20017;-45
2023/06/16 06:07:40;;;;;;;9.32;7.50;;;15.20;99.90;;;;;;5066902;28;20028;-45
2023/06/16 06:10:06;;;;;;;10.68;7.55;;;15.30;99.90;;;;;;5066295;28;20139;-43
2023/06/16 06:12:32;;;;;;;10.23;7.35;;;15.20;99.90;;;;;;5074455;28;20414;-43
2023/06/16 06:14:58;;;;;;;12.68;8.10;;;15.20;99.90;;;;;;5066018;28;20017;-42
2023/06/16 06:17:23;;;;;;;11.40;7.45;;;15.30;99.90;;;;;;5072457;28;20540;-43
2023/06/16 06:19:49;;;;;;;10.23;7.65;;;15.40;99.90;;;;;;5064831;28;20205;-43
2023/06/16 06:22:14;;;;;;;14.15;8.63;;;15.40;99.90;;;;;;5066105;28;20034;-46
2023/06/16 06:24:40;;;;;;;11.68;7.90;;;15.40;99.90;;;;;;5078372;28;20078;-45
2023/06/16 06:27:06;;;;;;;12.55;8.82;;;15.40;99.90;;;;;;5074135;28;20108;-42
2023/06/16 06:29:32;;;;;;;15.57;9.20;;;15.40;99.90;;;;;;5069721;28;20032;-45
2023/06/16 06:31:58;;;;;;;15.50;9.23;;;15.30;99.90;;;;;;5082188;28;20020;-42
2023/06/16 06:34:23;;;;;;;11.25;7.63;;;15.20;99.90;;;;;;5067119;28;20013;-43
2023/06/16 06:36:50;;;;;;;13.68;8.07;;;15.30;99.90;;;;;;5075930;28;20067;-43
2023/06/16 06:39:15;;;;;;;12.73;8.05;;;15.40;99.90;;;;;;5072362;28;20017;-43
2023/06/16 06:41:41;;;;;;;10.77;8.10;;;15.40;99.90;;;;;;5088158;28;20041;-43
2023/06/16 06:44:06;;;;;;;16.48;9.13;;;15.50;99.90;;;;;;5085157;28;20359;-42
2023/06/16 06:46:32;;;;;;;14.13;8.80;;;15.60;99.90;;;;;;5068938;28;20017;-44
2023/06/16 06:48:57;;;;;;;10.15;7.63;;;15.60;99.90;;;;;;5073326;28;20100;-42
2023/06/16 06:51:23;;;;;;;12.55;8.43;;;15.60;99.90;;;;;;5090632;28;20099;-44
2023/06/16 06:53:48;;;;;;;14.02;8.50;;;15.70;99.90;;;;;;5073518;28;20456;-42
2023/06/16 06:56:15;;;;;;;9.45;6.80;;;15.70;99.90;;;;;;5089156;28;20020;-43
2023/06/16 06:58:41;;;;;;;13.77;8.73;;;15.80;99.90;;;;;;5073301;28;20500;-42
2023/06/16 07:01:06;;;;;;;10.18;7.88;;;15.90;99.90;;;;;;5090449;28;20028;-43
2023/06/16 07:03:32;;;;;;;11.27;7.60;;;15.90;99.90;;;;;;5073168;28;20367;-43
2023/06/16 07:05:58;;;;;;;10.38;7.40;;;15.80;99.90;;;;;;5090688;28;20356;-45
2023/06/16 07:08:23;;;;;;;11.10;7.50;;;15.80;99.90;;;;;;5081615;28;20021;-44
2023/06/16 07:10:49;;;;;;;12.15;9.63;;;15.80;99.90;;;;;;5090914;28;20024;-42
2023/06/16 07:13:15;;;;;;;11.15;7.68;;;15.80;99.90;;;;;;5074822;28;20375;-44
2023/06/16 07:15:41;;;;;;;9.60;8.05;;;15.90;99.90;;;;;;5087326;28;20028;-41
2023/06/16 07:18:06;;;;;;;14.57;8.48;;;16.00;99.90;;;;;;5075262;28;20021;-46
2023/06/16 07:20:32;;;;;;;11.65;8.18;;;16.30;99.90;;;;;;5070303;28;20028;-44
2023/06/16 07:22:58;;;;;;;11.25;9.38;;;16.40;99.90;;;;;;5089520;28;20312;-42
2023/06/16 07:25:23;;;;;;;13.68;8.75;;;16.50;99.90;;;;;;5081749;28;20066;-43
2023/06/16 07:27:49;;;;;;;16.10;9.43;;;16.60;99.90;;;;;;5084910;28;20028;-44
2023/06/16 07:30:14;;;;;;;10.82;7.78;;;16.70;99.90;;;;;;5090739;28;20016;-43
2023/06/16 07:32:40;;;;;;;9.57;7.32;;;16.60;99.90;;;;;;5071190;28;20060;-42
2023/06/16 07:35:08;;;;;;;10.95;7.57;;;16.70;99.90;;;;;;5069924;28;20020;-43
2023/06/16 07:37:33;;;;;;;10.48;7.43;;;16.90;99.90;;;;;;5069845;28;20495;-44
2023/06/16 07:39:59;;;;;;;9.35;7.32;;;16.90;99.90;;;;;;5068720;28;20036;-43
2023/06/16 07:42:24;;;;;;;13.85;8.15;;;16.90;99.90;;;;;;5070326;28;20013;-42
2023/06/16 07:44:51;;;;;;;8.63;7.53;;;16.90;99.90;;;;;;5078373;28;20020;-43
2023/06/16 07:47:17;;;;;;;13.18;7.20;;;16.70;99.90;;;;;;5077597;28;20118;-43
2023/06/16 07:49:43;;;;;;;6.93;6.13;;;16.70;99.90;;;;;;5078142;28;20032;-45
2023/06/16 07:52:09;;;;;;;9.00;7.50;;;16.70;99.90;;;;;;5070018;28;20020;-44
2023/06/16 07:54:35;;;;;;;14.90;8.63;;;16.90;99.90;;;;;;5077813;28;20047;-43
2023/06/16 07:57:00;;;;;;;14.48;8.27;;;16.80;99.90;;;;;;5073844;28;20020;-42
2023/06/16 07:59:26;;;;;;;9.52;7.97;;;16.80;99.90;;;;;;5090130;28;20128;-42
2023/06/16 08:01:52;;;;;;;11.45;8.27;;;16.90;99.90;;;;;;5061760;28;20115;-45
2023/06/16 08:04:18;;;;;;;12.27;9.10;;;16.90;99.90;;;;;;5085465;28;20087;-43
2023/06/16 08:06:43;;;;;;;12.68;10.38;;;16.80;99.90;;;;;;5070010;28;20048;-45
2023/06/16 08:09:10;;;;;;;15.10;8.65;;;16.50;99.90;;;;;;5068067;28;20115;-44
2023/06/16 08:11:36;;;;;;;13.05;9.73;;;16.50;99.90;;;;;;5069423;28;20028;-43
2023/06/16 08:14:02;;;;;;;10.27;8.25;;;16.60;99.90;;;;;;5072322;28;20483;-43
2023/06/16 08:16:28;;;;;;;13.52;9.00;;;16.40;99.90;;;;;;5087679;28;20063;-43
2023/06/16 08:18:56;;;;;;;14.27;8.57;;;16.60;99.90;;;;;;5077808;28;20106;-43
2023/06/16 08:21:25;;;;;;;12.35;8.95;;;16.50;99.90;;;;;;5069464;28;20016;-44
2023/06/16 08:23:54;;;;;;;12.43;7.93;;;16.50;99.90;;;;;;5068980;28;20028;-44
2023/06/16 08:26:20;;;;;;;12.10;8.85;;;16.40;99.90;;;;;;5068789;28;20033;-43
2023/06/16 08:28:45;;;;;;;10.65;8.27;;;16.50;99.90;;;;;;5085977;28;20303;-45
2023/06/16 08:31:12;;;;;;;10.55;8.93;;;16.70;99.90;;;;;;5068007;28;20083;-44
2023/06/16 08:33:37;;;;;;;11.93;8.40;;;16.80;99.90;;;;;;5068872;28;20064;-47
2023/06/16 08:36:03;;;;;;;10.82;8.32;;;17.10;99.90;;;;;;5068937;28;20447;-42
2023/06/16 08:38:29;;;;;;;11.68;8.60;;;17.20;99.90;;;;;;5067333;28;20433;-43
2023/06/16 08:40:54;;;;;;;14.57;8.70;;;17.30;99.90;;;;;;5081109;28;20012;-44
2023/06/16 08:43:22;;;;;;;15.63;8.55;;;17.30;99.90;;;;;;5073686;28;20020;-44
2023/06/16 08:45:50;;;;;;;10.93;8.95;;;17.50;99.90;;;;;;5086457;28;20103;-45
2023/06/16 08:48:16;;;;;;;12.48;9.40;;;17.40;99.90;;;;;;5082215;28;20501;-45
2023/06/16 08:50:42;;;;;;;13.45;9.57;;;17.30;99.90;;;;;;5068908;28;20696;-45
2023/06/16 08:53:11;;;;;;;9.48;7.63;;;17.30;99.90;;;;;;5074166;28;20078;-45
2023/06/16 08:55:43;;;;;;;12.70;8.07;;;17.30;99.90;;;;;;5088050;28;20231;-44
2023/06/16 08:58:11;;;;;;;10.90;8.15;;;17.50;99.90;;;;;;5082931;28;20025;-44
2023/06/16 09:00:39;;;;;;;13.63;10.00;;;17.40;99.90;;;;;;5085997;28;20020;-44
2023/06/16 09:03:08;;;;;;;13.05;9.60;;;17.30;99.90;;;;;;5082854;28;20024;-44
2023/06/16 09:05:43;;;;;;;11.55;9.20;;;17.20;99.90;;;;;;5068031;28;20489;-43
2023/06/16 09:08:11;;;;;;;11.38;9.23;;;17.10;99.90;;;;;;5067338;28;20027;-44
2023/06/16 09:10:37;;;;;;;12.98;8.70;;;17.30;99.90;;;;;;5067985;28;20028;-48
2023/06/16 09:13:03;;;;;;;12.77;9.10;;;17.70;99.90;;;;;;5073431;28;20465;-45
2023/06/16 09:15:29;;;;;;;9.60;7.70;;;18.10;99.90;;;;;;5070646;28;20027;-44
2023/06/16 09:17:56;;;;;;;10.63;7.55;;;18.10;99.90;;;;;;5075187;28;20024;-46
2023/06/16 09:20:23;;;;;;;10.85;8.13;;;18.30;99.90;;;;;;5068358;28;20078;-45
2023/06/16 09:22:55;;;;;;;12.40;7.93;;;18.10;99.90;;;;;;5068095;28;20028;-44
2023/06/16 09:25:23;;;;;;;11.45;8.20;;;18.30;99.90;;;;;;5076386;28;20032;-43
2023/06/16 09:27:50;;;;;;;11.13;7.90;;;18.50;99.90;;;;;;5078081;28;20020;-45
2023/06/16 09:30:20;;;;;;;12.38;8.95;;;18.70;99.90;;;;;;5080798;28;20393;-48
2023/06/16 09:32:47;;;;;;;8.30;7.28;;;18.80;99.90;;;;;;5079012;28;20493;-44
2023/06/16 09:35:17;;;;;;;11.65;8.23;;;18.80;99.90;;;;;;5080362;28;20028;-45
2023/06/16 09:37:43;;;;;;;10.52;7.93;;;18.90;99.90;;;;;;5068229;28;20028;-44
2023/06/16 09:40:10;;;;;;;11.30;8.18;;;19.10;99.90;;;;;;5072644;28;20525;-44
2023/06/16 09:42:38;;;;;;;10.38;8.52;;;19.10;99.90;;;;;;5088288;28;20497;-45
2023/06/16 09:45:13;;;;;;;13.68;8.82;;;19.20;99.90;;;;;;5080844;28;20016;-47
2023/06/16 09:47:45;;;;;;;11.73;9.10;;;19.20;99.90;;;;;;5078868;28;20033;-43
2023/06/16 09:50:15;;;;;;;14.63;9.13;;;19.30;99.90;;;;;;5079972;28;20020;-46
2023/06/16 09:52:43;;;;;;;;;;;19.30;99.90;;;;;;5087340;28;20089;-44
2023/06/16 09:55:10;;;;;;;16.00;10.40;;;19.20;99.90;;;;;;5080777;28;19966;-43
2023/06/16 09:57:38;;;;;;;12.88;9.45;;;19.20;99.90;;;;;;5078950;28;20017;-45
2023/06/16 10:00:09;;;;;;;13.45;10.13;;;19.30;99.90;;;;;;5072266;28;20043;-44
2023/06/16 10:02:35;;;;;;;14.15;9.90;;;19.50;99.90;;;;;;5079339;28;20017;-43
2023/06/16 10:05:05;;;;;;;12.35;9.57;;;19.40;99.90;;;;;;5070683;28;20046;-43
2023/06/16 10:07:31;;;;;;;13.65;10.00;;;19.50;99.90;;;;;;5087885;28;20020;-43
2023/06/16 10:10:00;;;;;;;12.35;9.93;;;19.50;99.90;;;;;;5083024;28;20496;-44
2023/06/16 10:12:27;;;;;;;13.60;9.55;;;19.50;99.90;;;;;;5080909;28;20064;-43
2023/06/16 10:14:56;;;;;;;14.20;9.68;;;19.50;99.90;;;;;;5081789;28;20443;-44
2023/06/16 10:17:22;;;;;;;13.20;9.85;;;19.50;99.90;;;;;;5074888;28;20032;-51
2023/06/16 10:19:52;;;;;;;22.27;12.23;;;19.50;99.90;;;;;;5084892;28;20494;-44
2023/06/16 10:22:20;;;;;;;15.45;10.27;;;19.40;99.90;;;;;;5085925;28;20098;-48
2023/06/16 10:24:46;;;;;;;16.35;9.80;;;19.50;99.90;;;;;;5089626;28;20384;-43
2023/06/16 10:27:14;;;;;;;14.27;9.93;;;19.70;99.90;;;;;;5091129;28;20012;-44
2023/06/16 10:29:40;;;;;;;14.73;9.98;;;19.70;99.90;;;;;;5089874;28;20029;-44
2023/06/16 10:32:07;;;;;;;10.15;8.25;;;19.80;99.90;;;;;;5078033;28;20539;-44
2023/06/16 10:34:49;;;;;;;14.32;9.65;;;19.80;99.90;;;;;;5079987;28;20074;-44
2023/06/16 10:37:16;;;;;;;13.40;9.23;;;19.70;99.90;;;;;;5077045;28;20065;-44
2023/06/16 10:39:45;;;;;;;14.75;9.82;;;19.60;99.90;;;;;;5072551;28;20056;-44
2023/06/16 10:42:12;;;;;;;12.10;8.57;;;19.40;99.90;;;;;;5071352;28;20044;-44
2023/06/16 10:44:39;;;;;;;13.80;8.10;;;19.30;99.90;;;;;;5071678;28;20074;-44
2023/06/16 10:47:05;;;;;;;13.18;8.60;;;19.40;99.90;;;;;;5077319;28;20367;-44
2023/06/16 10:49:31;;;;;;;13.73;9.07;;;19.40;99.90;;;;;;5084262;28;20032;-45
2023/06/16 10:51:59;;;;;;;15.00;10.10;;;19.50;99.90;;;;;;5087994;28;20040;-45
2023/06/16 10:54:48;;;;;;;12.55;8.50;;;19.30;99.90;;;;;;5069938;28;20032;-43
2023/06/16 10:57:14;;;;;;;17.23;9.65;;;19.50;99.90;;;;;;5064112;28;20017;-43
2023/06/16 11:00:34;;;;;;;14.25;8.77;;;19.30;99.90;;;;;;5079678;28;20017;-46
2023/06/16 11:02:57;;;;;;;8.77;7.53;;;19.40;99.90;;;;;;5069476;28;20029;-43
2023/06/16 11:05:24;;;;;;;10.70;7.95;;;19.60;99.90;;;;;;5079164;28;20028;-43
2023/06/16 11:08:02;;;;;;;9.75;7.07;;;19.80;99.90;;;;;;5070538;28;20032;-43
2023/06/16 11:10:28;;;;;;;11.63;7.40;;;19.90;99.90;;;;;;5070794;28;20025;-43
2023/06/16 11:12:54;;;;;;;10.00;5.95;;;20.10;99.90;;;;;;5073827;28;20032;-43
2023/06/16 11:15:20;;;;;;;10.57;7.10;;;20.30;99.90;;;;;;5076216;28;20382;-43
2023/06/16 11:17:47;;;;;;;11.15;7.28;;;20.40;99.90;;;;;;5070206;28;20247;-42
2023/06/16 11:20:13;;;;;;;11.07;7.43;;;20.60;99.90;;;;;;5085750;28;20232;-43
2023/06/16 11:22:39;;;;;;;14.93;6.97;;;20.60;99.90;;;;;;5080501;28;20033;-43
2023/06/16 11:25:06;;;;;;;12.98;7.45;;;20.70;99.90;;;;;;5089401;28;20065;-45
2023/06/16 11:27:32;;;;;;;13.20;7.30;;;20.60;99.90;;;;;;5088818;28;20016;-43
2023/06/16 11:29:59;;;;;;;9.40;7.10;;;20.60;99.90;;;;;;5079152;28;20025;-46
2023/06/16 11:32:32;;;;;;;11.60;6.70;;;20.40;99.90;;;;;;5077396;28;20020;-44
2023/06/16 11:34:59;;;;;;;12.77;7.47;;;20.30;99.90;;;;;;5069443;28;20056;-43
2023/06/16 11:37:48;;;;;;;14.98;7.78;;;20.30;99.90;;;;;;5068857;28;20398;-44
2023/06/16 11:40:18;;;;;;;12.65;7.35;;;20.20;99.90;;;;;;5069176;28;20103;-43
2023/06/16 11:42:43;;;;;;;10.13;7.33;;;20.00;99.90;;;;;;5082422;28;20115;-43
2023/06/16 11:45:09;;;;;;;9.65;7.50;;;19.90;99.90;;;;;;5082514;28;20076;-47
2023/06/16 11:47:35;;;;;;;12.55;7.85;;;19.90;99.90;;;;;;5089795;28;20051;-47
2023/06/16 11:50:00;;;;;;;9.50;7.18;;;19.80;99.90;;;;;;5086193;28;20028;-44
2023/06/16 11:52:27;;;;;;;9.90;7.30;;;19.80;99.90;;;;;;5082119;28;20028;-43
2023/06/16 11:54:57;;;;;;;12.05;7.72;;;19.70;99.90;;;;;;5068482;28;20120;-44
2023/06/16 11:57:22;;;;;;;8.77;6.90;;;19.70;99.90;;;;;;5068966;28;20083;-46
2023/06/16 11:59:48;;;;;;;7.95;6.45;;;19.60;99.90;;;;;;5069862;28;20056;-49
2023/06/16 12:02:15;;;;;;;8.50;7.10;;;19.60;99.90;;;;;;5082438;28;20016;-55
2023/06/16 12:04:41;;;;;;;14.07;7.28;;;19.60;99.90;;;;;;5089648;28;20021;-54
2023/06/16 12:07:07;;;;;;;14.60;7.90;;;19.50;99.90;;;;;;5076918;28;20012;-46
2023/06/16 12:09:37;;;;;;;13.80;8.02;;;19.60;99.90;;;;;;5068164;28;20040;-54
2023/06/16 12:12:04;;;;;;;13.50;7.40;;;19.60;99.90;;;;;;5068627;28;20016;-54
2023/06/16 12:14:35;;;;;;;9.88;7.50;;;19.50;99.90;;;;;;5068303;28;20023;-54
2023/06/16 12:17:00;;;;;;;;;;;19.40;99.90;;;;;;5076585;28;20020;-54
2023/06/16 12:19:27;;;;;;;20.27;9.30;;;19.40;99.90;;;;;;5079038;28;20289;-53
2023/06/16 12:22:00;;;;;;;9.40;7.47;;;19.60;99.90;;;;;;5087271;28;20527;-45
2023/06/16 12:24:26;;;;;;;12.27;7.38;;;19.60;99.90;;;;;;5076083;28;20024;-45
2023/06/16 12:26:52;;;;;;;11.02;7.45;;;19.60;99.90;;;;;;5074472;28;20028;-43
2023/06/16 12:29:18;;;;;;;10.90;7.78;;;19.60;99.90;;;;;;5072749;28;20287;-48
2023/06/16 12:32:04;;;;;;;7.97;6.93;;;19.60;99.90;;;;;;5071571;28;20052;-47
2023/06/16 12:34:35;;;;;;;9.07;7.07;;;19.60;99.90;;;;;;5067769;28;20062;-45
2023/06/16 12:37:07;;;;;;;11.95;8.50;;;19.70;99.90;;;;;;5070268;28;20392;-44
2023/06/16 12:39:37;;;;;;;12.00;8.50;;;19.60;99.90;;;;;;5072920;28;20040;-46
2023/06/16 12:42:04;;;;;;;9.30;7.50;;;19.60;99.90;;;;;;5089173;28;20714;-45